createdAt,value
2023-01-11T06:28:06.108Z,97290.63
2023-01-11T06:30:10.035Z,97289.41
2023-01-11T06:32:12.726Z,97296.41
2023-01-11T06:34:15.472Z,97305.09
2023-01-11T06:36:18.459Z,97300.25
2023-01-11T06:38:23.513Z,97300.50
2023-01-11T06:40:26.217Z,97292.69
2023-01-11T06:42:28.937Z,97292.84
2023-01-11T06:44:32.978Z,97292.97
2023-01-11T06:46:35.773Z,97296.53
2023-01-11T06:48:38.524Z,97293.22
2023-01-11T06:50:41.275Z,97299.78
2023-01-11T06:52:44.162Z,97301.88
2023-01-11T06:54:46.934Z,97292.97
2023-01-11T06:56:49.895Z,97301.81
2023-01-11T06:58:52.865Z,97293.53
2023-01-11T07:00:58.202Z,97298.66
2023-01-11T07:03:04.707Z,97296.66
2023-01-11T07:05:07.985Z,97307.88
2023-01-11T07:07:10.692Z,97310.50
2023-01-11T07:09:13.394Z,97315.78
2023-01-11T07:11:16.191Z,97312.34
2023-01-11T07:13:19.244Z,97310.34
2023-01-11T07:15:23.545Z,97314.44
2023-01-11T07:17:27.765Z,97310.63
2023-01-11T07:19:30.536Z,97302.34
2023-01-11T07:21:33.329Z,97298.53
2023-01-11T07:23:36.147Z,97295.53
2023-01-11T07:25:39.095Z,97301.44
2023-01-11T07:27:41.992Z,97297.34
2023-01-11T07:29:44.755Z,97284.94
2023-01-11T07:31:47.769Z,97300.47
2023-01-11T07:33:52.144Z,97293.22
2023-01-11T07:35:55.455Z,97291.22
2023-01-11T07:37:58.546Z,97293.47
2023-01-11T07:40:01.360Z,97308.34
2023-01-11T07:42:21.889Z,97300.22
2023-01-11T07:44:24.663Z,97301.91
2023-01-11T07:46:28.506Z,97303.34
2023-01-11T07:48:31.446Z,97294.25
2023-01-11T07:50:35.557Z,97300.34
2023-01-11T07:52:38.422Z,97305.81
2023-01-11T07:54:41.171Z,97308.47
2023-01-11T07:56:43.947Z,97303.81
2023-01-11T07:58:46.771Z,97297.69
2023-01-11T08:00:49.585Z,97288.78
2023-01-11T08:02:55.569Z,97289.78
2023-01-11T08:04:59.126Z,97288.94
2023-01-11T08:07:03.269Z,97286.69
2023-01-11T08:09:06.681Z,97299.88
2023-01-11T08:11:27.030Z,97297.06
2023-01-11T08:14:01.868Z,97296.06
2023-01-11T08:16:05.330Z,97284.31
2023-01-11T08:18:08.468Z,97282.66
2023-01-11T08:20:12.575Z,97291.59
2023-01-11T08:22:17.579Z,97301.97
2023-01-11T08:24:21.510Z,97315.84
2023-01-11T08:26:25.274Z,97317.84
2023-01-11T08:28:28.130Z,97328.22
2023-01-11T08:30:31.549Z,97321.75
2023-01-11T08:32:34.411Z,97317.97
2023-01-11T08:34:37.075Z,97316.31
2023-01-11T08:36:39.894Z,97325.06
2023-01-11T08:38:45.651Z,97323.88
2023-01-11T08:40:48.730Z,97316.47
2023-01-11T08:42:55.743Z,97308.53
2023-01-11T08:44:58.665Z,97316.47
2023-01-11T08:47:02.259Z,97309.53
2023-01-11T08:49:11.172Z,97306.09
2023-01-11T08:51:14.695Z,97305.75
2023-01-11T08:53:17.478Z,97313.69
2023-01-11T08:55:21.761Z,97317.13
2023-01-11T08:57:27.127Z,97317.59
2023-01-11T08:59:29.874Z,97323.69
2023-01-11T09:01:33.579Z,97314.75
2023-01-11T09:03:36.757Z,97316.41
2023-01-11T09:05:40.045Z,97305.00
2023-01-11T09:07:45.208Z,97307.66
2023-01-11T09:09:47.915Z,97310.13
2023-01-11T09:11:57.575Z,97302.81
2023-01-11T09:14:00.474Z,97294.75
2023-01-11T09:16:04.663Z,97298.00
2023-01-11T09:18:10.648Z,97306.59
2023-01-11T09:20:14.076Z,97300.47
2023-01-11T09:22:16.936Z,97306.78
2023-01-11T09:24:20.168Z,97311.88
2023-01-11T09:26:22.987Z,97317.59
2023-01-11T09:28:27.029Z,97324.53
2023-01-11T09:30:29.827Z,97331.31
2023-01-11T09:32:32.572Z,97336.22
2023-01-11T09:34:35.887Z,97331.94
2023-01-11T09:36:41.119Z,97323.47
2023-01-11T09:38:43.935Z,97316.16
2023-01-11T09:40:55.574Z,97316.97
2023-01-11T09:43:01.330Z,97316.97
2023-01-11T09:45:14.517Z,97327.56
2023-01-11T09:47:25.954Z,97323.66
2023-01-11T09:49:33.803Z,97324.47
2023-01-11T09:51:40.642Z,97332.22
2023-01-11T09:53:49.419Z,97319.63
2023-01-11T09:55:54.173Z,97318.47
2023-01-11T09:58:06.513Z,97319.28
2023-01-11T10:00:23.828Z,97315.97
2023-01-11T10:02:42.686Z,97326.22
2023-01-11T10:04:59.274Z,97325.03
2023-01-11T10:07:19.754Z,97324.03
2023-01-11T10:18:32.627Z,97322.63
2023-01-11T10:18:39.330Z,97327.78
2023-01-11T10:19:47.981Z,97320.66
2023-01-11T10:21:55.901Z,97315.38
2023-01-11T10:24:03.192Z,97313.34
2023-01-11T10:26:13.641Z,97303.59
2023-01-11T10:28:23.912Z,97302.41
2023-01-11T10:30:41.921Z,97299.75
2023-01-11T10:33:06.133Z,97297.13
2023-01-11T10:35:29.287Z,97303.03
2023-01-11T10:37:50.019Z,97307.31
2023-01-11T10:40:18.371Z,97296.75
2023-01-11T10:42:23.623Z,97293.56
2023-01-11T10:44:34.355Z,97289.09
2023-01-11T10:46:43.443Z,97299.03
2023-01-11T10:48:48.081Z,97296.03
2023-01-11T10:50:58.589Z,97288.91
2023-01-11T10:53:11.745Z,97302.13
2023-01-11T10:55:17.488Z,97296.03
2023-01-11T10:57:34.490Z,97293.19
2023-01-11T10:59:58.708Z,97289.53
2023-01-11T11:02:13.432Z,97282.41
2023-01-11T11:04:31.302Z,97289.97
2023-01-11T11:06:45.585Z,97294.44
2023-01-11T11:08:54.501Z,97296.28
2023-01-11T11:11:02.342Z,97291.38
2023-01-11T11:13:14.630Z,97286.06
2023-01-11T11:15:23.618Z,97284.69
2023-01-11T11:17:31.320Z,97284.69
2023-01-11T11:19:35.559Z,97279.78
2023-01-11T11:21:40.798Z,97288.72
2023-01-11T11:23:45.355Z,97286.06
2023-01-11T11:25:52.381Z,97289.34
2023-01-11T11:27:59.227Z,97292.47
2023-01-11T11:30:01.908Z,97280.06
2023-01-11T11:32:05.036Z,97287.81
2023-01-11T11:34:09.793Z,97287.63
2023-01-11T11:36:17.525Z,97285.97
2023-01-11T11:38:23.880Z,97301.03
2023-01-11T11:40:32.706Z,97288.00
2023-01-11T11:42:35.649Z,97291.63
2023-01-11T11:44:38.549Z,97294.25
2023-01-11T11:46:41.346Z,97297.75
2023-01-11T11:48:45.220Z,97312.16
2023-01-11T11:50:49.266Z,97297.91
2023-01-11T11:52:56.092Z,97307.69
2023-01-11T11:54:59.749Z,97300.75
2023-01-11T11:57:15.483Z,97300.56
2023-01-11T11:59:20.959Z,97300.75
2023-01-11T12:01:27.603Z,97290.16
2023-01-11T12:03:33.625Z,97289.97
2023-01-11T12:05:36.474Z,97286.50
2023-01-11T12:07:54.643Z,97277.94
2023-01-11T12:10:03.089Z,97300.56
2023-01-11T12:12:06.505Z,97292.63
2023-01-11T12:14:18.569Z,97278.13
2023-01-11T12:16:23.859Z,97294.63
2023-01-11T12:18:28.750Z,97288.72
2023-01-11T12:20:40.613Z,97299.28
2023-01-11T12:22:44.335Z,97286.69
2023-01-11T12:24:48.252Z,97279.78
2023-01-11T12:27:03.928Z,97286.25
2023-01-11T12:29:29.505Z,97283.16
2023-01-11T12:31:44.579Z,97289.28
2023-01-11T12:33:50.147Z,97280.53
2023-01-11T12:36:02.410Z,97282.06
2023-01-11T12:38:24.627Z,97277.34
2023-01-11T12:40:37.087Z,97283.88
2023-01-11T12:42:59.594Z,97290.81
2023-01-11T12:45:16.255Z,97291.63
2023-01-11T12:47:48.706Z,97291.44
2023-01-11T12:49:56.920Z,97295.09
2023-01-11T12:52:27.736Z,97295.84
2023-01-11T12:54:52.753Z,97298.19
2023-01-11T12:57:13.959Z,97295.28
2023-01-11T12:59:36.256Z,97305.06
2023-01-11T13:01:44.130Z,97293.03
2023-01-11T13:04:15.002Z,97290.00
2023-01-11T13:06:26.787Z,97282.72
2023-01-11T13:08:44.092Z,97281.69
2023-01-11T13:10:56.766Z,97288.44
2023-01-11T13:13:06.833Z,97290.47
2023-01-11T13:15:41.829Z,97300.84
2023-01-11T13:17:50.755Z,97307.97
2023-01-11T13:20:04.385Z,97302.31
2023-01-11T13:22:15.360Z,97294.56
2023-01-11T13:24:25.416Z,97298.19
2023-01-11T13:26:34.742Z,97296.56
2023-01-11T13:28:40.801Z,97301.41
2023-01-11T13:30:47.384Z,97303.22
2023-01-11T13:32:56.519Z,97305.88
2023-01-11T13:35:07.089Z,97305.25
2023-01-11T13:37:17.661Z,97307.22
2023-01-11T13:39:24.073Z,97309.03
2023-01-11T13:41:31.447Z,97305.41
2023-01-11T13:43:41.497Z,97306.25
2023-01-11T13:45:50.357Z,97319.28
2023-01-11T13:47:58.218Z,97312.16
2023-01-11T13:50:04.801Z,97318.28
2023-01-11T13:52:13.847Z,97318.91
2023-01-11T13:54:21.609Z,97311.63
2023-01-11T13:56:31.155Z,97314.44
2023-01-11T13:58:45.023Z,97315.44
2023-01-11T14:00:54.631Z,97309.78
2023-01-11T14:03:04.297Z,97308.78
2023-01-11T14:05:14.257Z,97312.44
2023-01-11T14:07:28.949Z,97304.94
2023-01-11T14:09:55.376Z,97314.06
2023-01-11T14:12:06.826Z,97329.75
2023-01-11T14:14:45.669Z,97327.94
2023-01-11T14:17:14.718Z,97334.84
2023-01-11T14:19:24.154Z,97326.56
2023-01-11T14:21:33.221Z,97344.69
2023-01-11T14:23:46.426Z,97326.91
2023-01-11T14:26:30.976Z,97341.59
2023-01-11T14:28:52.462Z,97345.25
2023-01-11T14:31:24.177Z,97358.91
2023-01-11T14:33:57.677Z,97364.56
2023-01-11T14:36:22.453Z,97371.31
2023-01-11T14:38:45.683Z,97370.31
2023-01-11T14:41:11.366Z,97380.06
2023-01-11T14:43:43.608Z,97387.81
2023-01-11T14:46:10.087Z,97391.31
2023-01-11T14:48:27.500Z,97403.69
2023-01-11T14:50:45.467Z,97406.03
2023-01-11T14:52:51.695Z,97398.75
2023-01-11T14:54:57.139Z,97408.16
2023-01-11T14:57:01.569Z,97420.38
2023-01-11T14:59:06.212Z,97422.03
2023-01-11T15:01:11.847Z,97417.91
2023-01-11T15:03:35.973Z,97423.19
2023-01-11T15:05:47.789Z,97419.09
2023-01-11T15:07:51.993Z,97424.38
2023-01-11T15:09:55.385Z,97435.59
2023-01-11T15:12:14.085Z,97442.38
2023-01-11T15:14:28.096Z,97443.19
2023-01-11T15:16:51.115Z,97452.13
2023-01-11T15:18:55.005Z,97470.78
2023-01-11T15:21:04.983Z,97459.38
2023-01-11T15:23:08.097Z,97460.56
2023-01-11T15:25:23.096Z,97467.03
2023-01-11T15:27:28.643Z,97470.69
2023-01-11T15:29:33.349Z,97477.63
2023-01-11T15:31:40.056Z,97485.22
2023-01-11T15:33:48.059Z,97493.16
2023-01-11T15:36:04.167Z,97490.53
2023-01-11T15:38:14.017Z,97488.56
2023-01-11T15:40:21.958Z,97492.84
2023-01-11T15:43:02.597Z,97475.78
2023-01-11T15:45:37.871Z,97476.78
2023-01-11T15:48:08.999Z,97478.03
2023-01-11T15:50:46.964Z,97480.47
2023-01-11T15:53:34.778Z,97487.41
2023-01-11T15:56:22.224Z,97490.88
2023-01-11T15:59:01.176Z,97488.59
2023-01-11T16:01:21.503Z,97486.94
2023-01-11T16:03:38.811Z,97493.88
2023-01-11T16:05:45.133Z,97495.34
2023-01-11T16:07:57.631Z,97497.81
2023-01-11T16:10:16.164Z,97503.09
2023-01-11T16:12:42.317Z,97504.47
2023-01-11T16:15:09.466Z,97502.47
2023-01-11T16:17:15.191Z,97504.09
2023-01-11T16:19:21.866Z,97501.44
2023-01-11T16:21:33.325Z,97508.56
2023-01-11T16:23:36.798Z,97515.03
2023-01-11T16:25:42.990Z,97517.03
2023-01-11T16:27:53.257Z,97530.06
2023-01-11T16:29:56.748Z,97528.25
2023-01-11T16:32:01.877Z,97531.88
2023-01-11T16:34:07.581Z,97542.81
2023-01-11T16:36:13.917Z,97534.22
2023-01-11T16:38:20.357Z,97524.81
2023-01-11T16:40:27.317Z,97517.88
2023-01-11T16:42:35.546Z,97527.81
2023-01-11T16:44:42.745Z,97523.19
2023-01-11T16:47:07.836Z,97526.00
2023-01-11T16:49:11.639Z,97532.56
2023-01-11T16:51:16.953Z,97541.16
2023-01-11T16:53:21.139Z,97548.09
2023-01-11T16:55:29.521Z,97558.50
2023-01-11T16:57:39.477Z,97559.97
2023-01-11T16:59:42.180Z,97552.84
2023-01-11T17:01:53.871Z,97542.09
2023-01-11T17:03:56.862Z,97550.22
2023-01-11T17:06:19.384Z,97560.63
2023-01-11T17:08:27.738Z,97570.19
2023-01-11T17:10:31.124Z,97558.63
2023-01-11T17:12:35.607Z,97548.03
2023-01-11T17:15:01.936Z,97548.53
2023-01-11T17:17:07.914Z,97550.19
2023-01-11T17:19:16.610Z,97551.81
2023-01-11T17:21:21.783Z,97559.94
2023-01-11T17:23:24.641Z,97571.50
2023-01-11T17:25:37.358Z,97570.66
2023-01-11T17:27:54.755Z,97568.69
2023-01-11T17:30:00.521Z,97569.50
2023-01-11T17:32:06.874Z,97569.16
2023-01-11T17:34:26.331Z,97573.63
2023-01-11T17:36:30.311Z,97573.25
2023-01-11T17:38:33.811Z,97592.59
2023-01-11T17:40:39.360Z,97585.47
2023-01-11T17:42:59.956Z,97587.13
2023-01-11T17:45:18.565Z,97591.59
2023-01-11T17:47:23.420Z,97600.88
2023-01-11T17:49:26.863Z,97605.03
2023-01-11T17:51:32.158Z,97613.81
2023-01-11T17:53:37.315Z,97618.25
2023-01-11T17:55:50.886Z,97609.34
2023-01-11T17:58:19.293Z,97605.53
2023-01-11T18:00:29.330Z,97606.16
2023-01-11T18:02:32.115Z,97595.78
2023-01-11T18:04:36.625Z,97604.06
2023-01-11T18:06:42.529Z,97603.22
2023-01-11T18:08:50.943Z,97604.88
2023-01-11T18:10:55.956Z,97601.06
2023-01-11T18:13:01.068Z,97593.78
2023-01-11T18:15:07.085Z,97597.22
2023-01-11T18:17:31.226Z,97603.34
2023-01-11T18:19:39.129Z,97608.16
2023-01-11T18:21:52.297Z,97613.09
2023-01-11T18:24:22.290Z,97615.75
2023-01-11T18:26:29.409Z,97621.03
2023-01-11T18:28:38.908Z,97632.25
2023-01-11T18:30:43.044Z,97633.56
2023-01-11T18:32:47.240Z,97630.94
2023-01-11T18:34:53.252Z,97628.28
2023-01-11T18:36:58.724Z,97625.66
2023-01-11T18:39:01.994Z,97627.47
2023-01-11T18:41:22.643Z,97630.94
2023-01-11T18:43:28.231Z,97630.94
2023-01-11T18:45:31.035Z,97636.03
2023-01-11T18:47:33.765Z,97648.28
2023-01-11T18:49:38.150Z,97654.38
2023-01-11T18:51:41.627Z,97643.81
2023-01-11T18:53:44.368Z,97646.28
2023-01-11T18:55:47.407Z,97641.81
2023-01-11T18:57:52.760Z,97641.81
2023-01-11T18:59:55.875Z,97649.72
2023-01-11T19:02:16.362Z,97656.03
2023-01-11T19:04:19.873Z,97665.78
2023-01-11T19:06:23.680Z,97675.53
2023-01-11T19:08:26.519Z,97666.13
2023-01-11T19:10:29.336Z,97668.09
2023-01-11T19:12:32.043Z,97666.63
2023-01-11T19:14:35.128Z,97664.16
2023-01-11T19:16:37.810Z,97666.63
2023-01-11T19:18:40.473Z,97661.50
2023-01-11T19:20:43.359Z,97669.63
2023-01-11T19:22:47.459Z,97673.91
2023-01-11T19:24:50.108Z,97675.91
2023-01-11T19:26:52.885Z,97676.09
2023-01-11T19:28:55.594Z,97680.56
2023-01-11T19:30:58.511Z,97684.19
2023-01-11T19:33:01.320Z,97677.25
2023-01-11T19:35:04.134Z,97669.31
2023-01-11T19:37:06.749Z,97669.31
2023-01-11T19:39:11.061Z,97659.72
2023-01-11T19:41:15.629Z,97654.44
2023-01-11T19:43:18.333Z,97658.06
2023-01-11T19:45:21.289Z,97655.59
2023-01-11T19:47:23.975Z,97655.78
2023-01-11T19:49:26.925Z,97659.44
2023-01-11T19:51:29.643Z,97663.06
2023-01-11T19:53:33.165Z,97658.78
2023-01-11T19:55:41.026Z,97657.31
2023-01-11T19:57:43.779Z,97668.03
2023-01-11T19:59:46.689Z,97678.59
2023-01-11T20:01:49.766Z,97683.06
2023-01-11T20:03:52.550Z,97678.28
2023-01-11T20:06:04.573Z,97682.41
2023-01-11T20:08:07.339Z,97691.44
2023-01-11T20:10:11.538Z,97683.19
2023-01-11T20:12:16.206Z,97679.56
2023-01-11T20:14:18.992Z,97683.84
2023-01-11T20:16:24.215Z,97684.84
2023-01-11T20:18:27.224Z,97682.56
2023-01-11T20:20:29.929Z,97677.09
2023-01-11T20:22:33.160Z,97672.44
2023-01-11T20:24:35.822Z,97674.91
2023-01-11T20:26:38.732Z,97683.50
2023-01-11T20:28:43.166Z,97694.91
2023-01-11T20:30:45.780Z,97695.72
2023-01-11T20:32:51.379Z,97701.50
2023-01-11T20:34:54.058Z,97691.56
2023-01-11T20:36:59.907Z,97689.56
2023-01-11T20:39:02.814Z,97695.50
2023-01-11T20:41:09.081Z,97702.28
2023-01-11T20:43:12.076Z,97709.22
2023-01-11T20:45:16.516Z,97714.50
2023-01-11T20:47:21.518Z,97707.56
2023-01-11T20:49:31.212Z,97708.56
2023-01-11T20:51:34.165Z,97707.75
2023-01-11T20:53:37.400Z,97713.03
2023-01-11T20:55:40.135Z,97710.56
2023-01-11T20:57:45.352Z,97710.38
2023-01-11T20:59:48.111Z,97704.91
2023-01-11T21:01:52.222Z,97703.78
2023-01-11T21:03:55.483Z,97715.19
2023-01-11T21:05:58.348Z,97711.53
2023-01-11T21:08:01.271Z,97712.34
2023-01-11T21:10:03.994Z,97714.81
2023-01-11T21:12:09.388Z,97718.47
2023-01-11T21:14:12.847Z,97715.66
2023-01-11T21:16:17.352Z,97718.13
2023-01-11T21:18:21.589Z,97724.06
2023-01-11T21:20:24.415Z,97737.94
2023-01-11T21:22:27.576Z,97736.09
2023-01-11T21:24:30.770Z,97730.81
2023-01-11T21:26:47.913Z,97733.31
2023-01-11T21:28:53.193Z,97734.13
2023-01-11T21:31:04.361Z,97736.09
2023-01-11T21:33:06.982Z,97751.97
2023-01-11T21:35:11.418Z,97757.28
2023-01-11T21:37:14.133Z,97759.09
2023-01-11T21:39:17.534Z,97773.31
2023-01-11T21:41:42.024Z,97778.44
2023-01-11T21:43:44.839Z,97778.44
2023-01-11T21:45:55.484Z,97764.38
2023-01-11T21:47:58.167Z,97755.81
2023-01-11T21:50:01.015Z,97746.69
2023-01-11T21:52:05.158Z,97750.16
2023-01-11T21:54:10.349Z,97751.97
2023-01-11T21:56:13.652Z,97760.75
2023-01-11T21:58:16.572Z,97760.75
2023-01-11T22:00:20.472Z,97764.56
2023-01-11T22:02:23.190Z,97768.03
2023-01-11T22:04:26.058Z,97769.84
2023-01-11T22:06:28.866Z,97766.19
2023-01-11T22:08:35.631Z,97769.84
2023-01-11T22:10:39.250Z,97767.84
2023-01-11T22:12:42.407Z,97775.97
2023-01-11T22:14:45.595Z,97765.38
2023-01-11T22:16:48.536Z,97763.56
2023-01-11T22:18:51.225Z,97759.44
2023-01-11T22:20:54.066Z,97763.09
2023-01-11T22:22:56.764Z,97760.44
2023-01-11T22:25:01.019Z,97761.44
2023-01-11T22:27:03.837Z,97768.72
2023-01-11T22:29:15.401Z,97773.03
2023-01-11T22:31:18.274Z,97768.72
2023-01-11T22:33:20.920Z,97762.78
2023-01-11T22:35:23.642Z,97761.13
2023-01-11T22:37:26.356Z,97759.47
2023-01-11T22:39:29.435Z,97754.03
2023-01-11T22:41:33.501Z,97748.88
